createdAt,value
2017-12-17T00:01:28.320Z,19.44
2017-12-17T00:03:56.843Z,19.42
2017-12-17T00:06:25.788Z,19.41
2017-12-17T00:08:54.494Z,19.42
2017-12-17T00:11:23.105Z,19.44
2017-12-17T00:13:51.574Z,19.44
2017-12-17T00:16:20.389Z,19.46
2017-12-17T00:18:49.342Z,19.43
2017-12-17T00:21:18.390Z,19.43
2017-12-17T00:23:47.096Z,19.42
2017-12-17T00:26:15.849Z,19.42
2017-12-17T00:28:44.700Z,19.42
2017-12-17T00:31:13.638Z,19.41
2017-12-17T00:33:42.235Z,19.41
2017-12-17T00:36:10.723Z,19.39
2017-12-17T00:38:39.367Z,19.36
2017-12-17T00:41:08.062Z,19.34
2017-12-17T00:43:36.994Z,19.34
2017-12-17T00:46:05.708Z,19.38
2017-12-17T00:48:34.344Z,19.38
2017-12-17T00:51:03.032Z,19.38
2017-12-17T00:53:31.696Z,19.35
2017-12-17T00:56:00.399Z,19.34
2017-12-17T00:58:29.089Z,19.35
2017-12-17T01:00:57.795Z,19.36
2017-12-17T01:03:26.388Z,19.40
2017-12-17T01:05:55.401Z,19.41
2017-12-17T01:08:24.123Z,19.39
2017-12-17T01:10:52.634Z,19.37
2017-12-17T01:13:21.298Z,19.38
2017-12-17T01:15:49.960Z,19.39
2017-12-17T01:18:18.572Z,19.39
2017-12-17T01:20:47.289Z,19.39
2017-12-17T01:23:15.956Z,19.40
2017-12-17T01:25:44.717Z,19.36
2017-12-17T01:28:13.424Z,19.34
2017-12-17T01:30:42.013Z,19.34
2017-12-17T01:33:10.610Z,19.34
2017-12-17T01:35:39.182Z,19.35
2017-12-17T01:38:07.853Z,19.34
2017-12-17T01:40:36.693Z,19.32
2017-12-17T01:43:05.609Z,19.31
2017-12-17T01:45:34.205Z,19.33
2017-12-17T01:48:02.745Z,19.32
2017-12-17T01:50:31.562Z,19.33
2017-12-17T01:53:00.142Z,19.34
2017-12-17T01:55:28.904Z,19.33
2017-12-17T01:57:57.433Z,19.34
2017-12-17T02:00:26.224Z,19.32
2017-12-17T02:02:54.908Z,19.34
2017-12-17T02:05:23.742Z,19.36
2017-12-17T02:07:52.483Z,19.34
2017-12-17T02:10:25.117Z,19.34
2017-12-17T02:12:53.917Z,19.33
2017-12-17T02:15:22.446Z,19.32
2017-12-17T02:17:51.089Z,19.31
2017-12-17T02:20:19.661Z,19.34
2017-12-17T02:22:48.313Z,19.34
2017-12-17T02:25:16.860Z,19.33
2017-12-17T02:27:45.485Z,19.34
2017-12-17T02:30:14.332Z,19.34
2017-12-17T02:32:42.989Z,19.33
2017-12-17T02:35:11.578Z,19.33
2017-12-17T02:37:40.253Z,19.32
2017-12-17T02:40:08.920Z,19.33
2017-12-17T02:42:37.613Z,19.34
2017-12-17T02:45:06.476Z,19.33
2017-12-17T02:47:35.334Z,19.33
2017-12-17T02:50:03.898Z,19.33
2017-12-17T02:52:32.497Z,19.33
2017-12-17T02:55:01.013Z,19.34
2017-12-17T02:57:29.767Z,19.34
2017-12-17T02:59:58.534Z,19.34
2017-12-17T03:02:27.374Z,19.32
2017-12-17T03:04:56.325Z,19.33
2017-12-17T03:07:24.959Z,19.33
2017-12-17T03:09:53.579Z,19.32
2017-12-17T03:12:22.722Z,19.34
2017-12-17T03:14:51.312Z,19.34
2017-12-17T03:17:20.052Z,19.33
2017-12-17T03:19:48.540Z,19.33
2017-12-17T03:22:21.037Z,19.33
2017-12-17T03:24:49.854Z,19.31
2017-12-17T03:27:18.687Z,19.32
2017-12-17T03:29:50.732Z,19.31
2017-12-17T03:32:22.801Z,19.31
2017-12-17T03:34:51.528Z,19.33
2017-12-17T03:37:20.097Z,19.31
2017-12-17T03:39:48.826Z,19.34
2017-12-17T03:42:17.376Z,19.30
2017-12-17T03:44:45.974Z,19.30
2017-12-17T03:47:14.679Z,19.32
2017-12-17T03:49:43.189Z,19.28
2017-12-17T03:52:11.936Z,19.31
2017-12-17T03:54:40.696Z,19.32
2017-12-17T03:57:09.444Z,19.33
2017-12-17T03:59:38.093Z,19.32
2017-12-17T04:02:06.713Z,19.32
2017-12-17T04:04:35.649Z,19.31
2017-12-17T04:07:04.347Z,19.30
2017-12-17T04:09:33.145Z,19.34
2017-12-17T04:12:01.817Z,19.31
2017-12-17T04:14:30.536Z,19.31
2017-12-17T04:16:59.049Z,19.33
2017-12-17T04:19:27.520Z,19.29
2017-12-17T04:21:56.293Z,19.30
2017-12-17T04:24:24.852Z,19.30
2017-12-17T04:26:53.476Z,19.31
2017-12-17T04:29:22.098Z,19.29
2017-12-17T04:31:50.858Z,19.33
2017-12-17T04:34:19.396Z,19.47
2017-12-17T04:36:48.052Z,19.57
2017-12-17T04:39:17.024Z,19.68
2017-12-17T04:41:45.739Z,19.66
2017-12-17T04:44:14.458Z,19.65
2017-12-17T04:46:43.026Z,19.63
2017-12-17T04:49:11.552Z,19.72
2017-12-17T04:51:40.469Z,19.70
2017-12-17T04:54:09.267Z,19.65
2017-12-17T04:56:37.805Z,19.72
2017-12-17T04:59:06.545Z,19.70
2017-12-17T05:04:31.506Z,19.72
2017-12-17T05:06:59.827Z,19.75
2017-12-17T05:09:28.152Z,19.72
2017-12-17T05:11:56.443Z,19.70
2017-12-17T05:14:24.758Z,19.68
2017-12-17T05:16:53.227Z,19.70
2017-12-17T05:19:21.674Z,19.65
2017-12-17T05:21:49.979Z,19.63
2017-12-17T05:24:18.255Z,19.64
2017-12-17T05:26:46.575Z,19.73
2017-12-17T05:29:14.889Z,19.74
2017-12-17T05:31:43.191Z,19.75
2017-12-17T05:34:11.442Z,19.74
2017-12-17T05:36:39.761Z,19.70
2017-12-17T05:39:08.037Z,19.69
2017-12-17T05:41:36.335Z,19.66
2017-12-17T05:44:04.624Z,19.65
2017-12-17T05:46:33.095Z,19.64
2017-12-17T05:49:01.427Z,19.62
2017-12-17T05:51:29.913Z,19.62
2017-12-17T05:53:58.380Z,19.62
2017-12-17T05:56:26.672Z,19.59
2017-12-17T05:58:55.118Z,19.55
2017-12-17T06:01:23.496Z,19.55
2017-12-17T06:03:51.774Z,19.55
2017-12-17T06:06:20.091Z,19.52
2017-12-17T06:08:48.367Z,19.53
2017-12-17T06:11:16.679Z,19.51
2017-12-17T06:13:45.040Z,19.51
2017-12-17T06:16:13.422Z,19.48
2017-12-17T06:18:41.692Z,19.50
2017-12-17T06:21:10.172Z,19.45
2017-12-17T06:23:38.495Z,19.46
2017-12-17T06:26:06.804Z,19.47
2017-12-17T06:28:35.078Z,19.48
2017-12-17T06:31:03.791Z,19.46
2017-12-17T06:33:32.071Z,19.44
2017-12-17T06:36:00.438Z,19.47
2017-12-17T06:38:28.754Z,19.51
2017-12-17T06:40:57.079Z,19.49
2017-12-17T06:43:25.376Z,19.52
2017-12-17T06:45:53.796Z,19.51
2017-12-17T06:48:22.158Z,19.50
2017-12-17T06:50:50.434Z,19.51
2017-12-17T06:53:18.757Z,19.53
2017-12-17T06:55:47.078Z,19.57
2017-12-17T06:58:15.404Z,19.55
2017-12-17T07:00:43.896Z,19.55
2017-12-17T07:03:12.583Z,19.57
2017-12-17T07:05:40.965Z,19.56
2017-12-17T07:08:09.275Z,19.58
2017-12-17T07:10:37.600Z,19.59
2017-12-17T07:13:06.079Z,19.58
2017-12-17T07:15:34.587Z,19.61
2017-12-17T07:18:03.038Z,19.64
2017-12-17T07:20:31.474Z,19.67
2017-12-17T07:22:59.971Z,19.65
2017-12-17T07:25:28.262Z,19.69
2017-12-17T07:27:56.775Z,19.69
2017-12-17T07:30:25.207Z,19.69
2017-12-17T07:32:53.751Z,19.70
2017-12-17T07:35:22.238Z,19.70
2017-12-17T07:37:50.571Z,19.71
2017-12-17T07:40:18.854Z,19.71
2017-12-17T07:42:47.132Z,19.74
2017-12-17T07:45:15.431Z,19.75
2017-12-17T07:47:43.831Z,19.77
2017-12-17T07:50:12.175Z,19.77
2017-12-17T07:52:40.427Z,19.81
2017-12-17T07:55:08.736Z,19.78
2017-12-17T07:57:37.011Z,19.81
2017-12-17T08:00:05.354Z,19.81
2017-12-17T08:02:33.783Z,19.80
2017-12-17T08:05:02.256Z,19.78
2017-12-17T08:07:30.727Z,19.79
2017-12-17T08:09:59.011Z,19.78
2017-12-17T08:12:27.353Z,19.81
2017-12-17T08:14:55.735Z,19.77
2017-12-17T08:17:24.142Z,19.79
2017-12-17T08:19:52.931Z,19.80
2017-12-17T08:22:21.243Z,19.80
2017-12-17T08:24:49.589Z,19.80
2017-12-17T08:27:17.931Z,19.77
2017-12-17T08:29:46.194Z,19.77
2017-12-17T08:32:14.499Z,19.77
2017-12-17T08:34:42.762Z,19.77
2017-12-17T08:37:11.083Z,19.78
2017-12-17T08:39:39.324Z,19.76
2017-12-17T08:42:07.643Z,19.76
2017-12-17T08:47:10.349Z,19.78
2017-12-17T08:49:38.764Z,19.79
2017-12-17T08:52:07.111Z,19.78
2017-12-17T08:54:35.431Z,19.80
2017-12-17T08:57:03.755Z,19.83
2017-12-17T08:59:32.025Z,19.83
2017-12-17T09:02:00.415Z,19.82
2017-12-17T09:04:28.827Z,19.82
2017-12-17T09:06:57.702Z,19.81
2017-12-17T09:09:26.008Z,19.78
2017-12-17T09:11:54.454Z,19.80
2017-12-17T09:14:22.770Z,19.80
2017-12-17T09:16:51.285Z,19.80
2017-12-17T09:19:19.972Z,19.79
2017-12-17T09:21:48.243Z,19.77
2017-12-17T09:24:16.667Z,19.74
2017-12-17T09:26:45.000Z,19.75
2017-12-17T09:29:13.263Z,19.76
2017-12-17T09:31:41.661Z,19.77
2017-12-17T09:34:09.997Z,19.78
2017-12-17T09:36:39.961Z,19.78
2017-12-17T09:39:09.259Z,19.78
2017-12-17T09:41:37.738Z,19.76
2017-12-17T09:44:06.043Z,19.77
2017-12-17T09:46:34.351Z,19.77
2017-12-17T09:49:02.799Z,19.78
2017-12-17T09:51:31.128Z,19.81
2017-12-17T09:53:59.407Z,19.79
2017-12-17T09:56:27.760Z,19.80
2017-12-17T09:58:56.182Z,19.79
2017-12-17T10:01:24.527Z,19.79
2017-12-17T10:03:52.812Z,19.83
2017-12-17T10:06:21.298Z,19.82
2017-12-17T10:08:49.782Z,19.86
2017-12-17T10:11:18.134Z,19.83
2017-12-17T10:13:46.654Z,19.84
2017-12-17T10:16:14.960Z,19.82
2017-12-17T10:18:43.288Z,19.83
2017-12-17T10:21:11.630Z,19.85
2017-12-17T10:23:41.982Z,19.86
2017-12-17T10:26:12.090Z,19.85
2017-12-17T10:28:40.487Z,19.89
2017-12-17T10:31:08.966Z,19.90
2017-12-17T10:33:37.235Z,19.87
2017-12-17T10:36:05.547Z,19.88
2017-12-17T10:38:34.064Z,19.89
2017-12-17T10:41:02.386Z,19.91
2017-12-17T10:43:30.672Z,19.90
2017-12-17T10:45:58.955Z,19.87
2017-12-17T10:48:28.867Z,19.87
2017-12-17T10:50:57.151Z,19.86
2017-12-17T10:53:25.494Z,19.87
2017-12-17T10:55:53.827Z,19.84
2017-12-17T10:58:22.243Z,19.85
2017-12-17T11:00:50.775Z,19.85
2017-12-17T11:03:19.139Z,19.86
2017-12-17T11:05:47.819Z,19.85
2017-12-17T11:08:16.088Z,19.81
2017-12-17T11:10:44.379Z,19.80
2017-12-17T11:13:12.816Z,19.83
2017-12-17T11:15:41.240Z,19.84
2017-12-17T11:18:09.791Z,19.84
2017-12-17T11:20:38.913Z,19.87
2017-12-17T11:23:07.222Z,19.86
2017-12-17T11:25:35.537Z,19.85
2017-12-17T11:28:03.824Z,19.82
2017-12-17T11:30:32.131Z,19.81
2017-12-17T11:33:00.429Z,19.83
2017-12-17T11:35:28.772Z,19.83
2017-12-17T11:37:57.053Z,19.81
2017-12-17T11:40:25.511Z,19.84
2017-12-17T11:42:53.795Z,19.87
2017-12-17T11:45:22.293Z,19.85
2017-12-17T11:47:50.636Z,19.85
2017-12-17T11:50:20.403Z,19.86
2017-12-17T11:52:48.683Z,19.88
2017-12-17T11:55:16.987Z,19.88
2017-12-17T11:57:45.392Z,19.90
2017-12-17T12:00:13.691Z,19.89
2017-12-17T12:02:42.013Z,19.87
2017-12-17T12:05:11.033Z,19.88
2017-12-17T12:07:41.972Z,19.90
2017-12-17T12:10:10.766Z,19.89
2017-12-17T12:12:39.295Z,19.89
2017-12-17T12:15:07.616Z,19.87
2017-12-17T12:17:36.002Z,19.89
2017-12-17T12:20:04.320Z,19.87
2017-12-17T12:22:32.618Z,19.88
2017-12-17T12:25:03.084Z,19.86
2017-12-17T12:27:31.913Z,19.85
2017-12-17T12:30:02.281Z,19.86
2017-12-17T12:32:31.022Z,19.83
2017-12-17T12:35:01.389Z,19.83
2017-12-17T12:37:30.054Z,19.82
2017-12-17T12:39:58.459Z,19.84
2017-12-17T12:42:26.809Z,19.85
2017-12-17T12:44:55.118Z,19.84
2017-12-17T12:47:23.406Z,19.88
2017-12-17T12:49:51.722Z,19.91
2017-12-17T12:52:20.064Z,19.91
2017-12-17T12:54:48.611Z,19.91
2017-12-17T12:57:16.912Z,19.92
2017-12-17T12:59:45.177Z,19.91
2017-12-17T13:02:14.629Z,19.95
2017-12-17T13:04:42.902Z,19.87
2017-12-17T13:07:11.476Z,19.82
2017-12-17T13:09:40.711Z,19.79
2017-12-17T13:12:09.020Z,19.75
2017-12-17T13:14:37.364Z,19.79
2017-12-17T13:17:05.664Z,19.78
2017-12-17T13:19:33.952Z,19.73
2017-12-17T13:22:02.371Z,19.72
2017-12-17T13:24:30.643Z,19.70
2017-12-17T13:26:59.447Z,19.66
2017-12-17T13:29:27.826Z,19.64
2017-12-17T13:31:56.386Z,19.59
2017-12-17T13:34:25.471Z,19.61
2017-12-17T13:36:53.767Z,19.62
2017-12-17T13:39:22.054Z,19.59
2017-12-17T13:41:50.355Z,19.56
2017-12-17T13:44:18.851Z,19.54
2017-12-17T13:46:47.189Z,19.48
2017-12-17T13:49:15.734Z,19.48
2017-12-17T13:51:44.227Z,19.46
2017-12-17T13:54:12.708Z,19.43
2017-12-17T13:56:41.077Z,19.44
2017-12-17T13:59:09.371Z,19.41
2017-12-17T14:01:37.670Z,19.40
2017-12-17T14:04:05.659Z,19.42
2017-12-17T14:06:34.079Z,19.48
2017-12-17T14:09:02.463Z,19.49
2017-12-17T14:11:30.782Z,19.40
2017-12-17T14:13:59.059Z,19.40
2017-12-17T14:16:27.363Z,19.42
2017-12-17T14:18:55.664Z,19.38
2017-12-17T14:21:23.943Z,19.39
2017-12-17T14:23:52.287Z,19.37
2017-12-17T14:26:20.576Z,19.36
2017-12-17T14:28:49.006Z,19.37
2017-12-17T14:31:17.323Z,19.35
2017-12-17T14:33:45.582Z,19.34
2017-12-17T14:36:13.872Z,19.34
2017-12-17T14:38:42.807Z,19.35
2017-12-17T14:41:11.103Z,19.40
2017-12-17T14:43:39.420Z,19.35
2017-12-17T14:46:08.188Z,19.39
2017-12-17T14:48:36.705Z,19.37
2017-12-17T14:51:05.025Z,19.37
2017-12-17T14:53:33.319Z,19.34
2017-12-17T14:56:01.602Z,19.33
2017-12-17T14:58:30.121Z,19.32
2017-12-17T15:00:58.432Z,19.32
2017-12-17T15:03:26.740Z,19.31
2017-12-17T15:05:55.026Z,19.29
2017-12-17T15:08:23.303Z,19.31
2017-12-17T15:10:51.598Z,19.27
2017-12-17T15:13:20.176Z,19.29
2017-12-17T15:15:48.559Z,19.25
2017-12-17T15:18:16.985Z,19.24
2017-12-17T15:20:45.275Z,19.26
2017-12-17T15:23:13.563Z,19.24
2017-12-17T15:25:41.875Z,19.24
2017-12-17T15:28:10.285Z,19.24
2017-12-17T15:30:38.588Z,19.23
2017-12-17T15:33:06.883Z,19.22
2017-12-17T15:35:35.408Z,19.20
2017-12-17T15:38:03.662Z,19.15
2017-12-17T15:40:32.059Z,19.22
2017-12-17T15:43:00.346Z,19.20
2017-12-17T15:45:28.698Z,19.22
2017-12-17T15:47:56.993Z,19.20
2017-12-17T15:50:25.306Z,19.21
2017-12-17T15:52:53.635Z,19.21
2017-12-17T15:55:21.932Z,19.21
2017-12-17T15:57:50.288Z,19.20
2017-12-17T16:00:18.639Z,19.21
2017-12-17T16:02:47.056Z,19.18
2017-12-17T16:05:15.427Z,19.20
2017-12-17T16:07:43.687Z,19.20
2017-12-17T16:10:12.170Z,19.25
2017-12-17T16:12:40.442Z,19.31
2017-12-17T16:15:08.722Z,19.38
2017-12-17T16:17:37.067Z,19.37
2017-12-17T16:20:05.355Z,19.35
2017-12-17T16:22:33.646Z,19.34
2017-12-17T16:25:01.916Z,19.36
2017-12-17T16:27:30.298Z,19.38
2017-12-17T16:29:58.588Z,19.32
2017-12-17T16:32:26.951Z,19.34
2017-12-17T16:34:55.281Z,19.29
2017-12-17T16:37:25.389Z,19.25
2017-12-17T16:39:53.724Z,19.14
2017-12-17T16:42:22.016Z,19.21
2017-12-17T16:44:50.293Z,19.24
2017-12-17T16:47:18.578Z,19.34
2017-12-17T16:49:46.834Z,19.38
2017-12-17T16:52:15.145Z,19.48
2017-12-17T16:54:43.420Z,19.38
2017-12-17T16:57:11.722Z,19.39
2017-12-17T16:59:40.027Z,19.45
2017-12-17T17:02:08.327Z,19.44
2017-12-17T17:04:36.591Z,19.50
2017-12-17T17:07:05.002Z,19.53
2017-12-17T17:09:33.327Z,19.51
2017-12-17T17:12:01.622Z,19.53
2017-12-17T17:14:30.075Z,19.50
2017-12-17T17:16:58.411Z,19.52
2017-12-17T17:19:26.830Z,19.54
2017-12-17T17:21:55.288Z,19.54
2017-12-17T17:24:23.589Z,19.54
2017-12-17T17:26:52.031Z,19.56
2017-12-17T17:29:20.409Z,19.55
2017-12-17T17:31:48.855Z,19.52
2017-12-17T17:34:19.576Z,19.56
2017-12-17T17:36:49.683Z,19.58
2017-12-17T17:39:17.989Z,19.60
2017-12-17T17:41:46.315Z,19.60
2017-12-17T17:44:14.575Z,19.60
2017-12-17T17:46:49.086Z,19.58
2017-12-17T17:49:18.972Z,19.54
2017-12-17T17:51:47.310Z,19.56
2017-12-17T17:54:15.630Z,19.59
2017-12-17T17:56:44.115Z,19.62
2017-12-17T17:59:12.406Z,19.70
2017-12-17T18:01:40.717Z,19.74
2017-12-17T18:04:14.467Z,19.72
2017-12-17T18:06:44.975Z,19.74
2017-12-17T18:09:13.239Z,19.77
2017-12-17T18:11:41.789Z,19.79
2017-12-17T18:14:10.550Z,19.75
2017-12-17T18:16:38.919Z,19.80
2017-12-17T18:19:07.210Z,19.75
2017-12-17T18:21:35.489Z,19.78
2017-12-17T18:24:04.087Z,19.75
2017-12-17T18:26:32.985Z,19.74
2017-12-17T18:29:01.289Z,19.79
2017-12-17T18:31:30.937Z,19.80
2017-12-17T18:34:00.082Z,19.87
2017-12-17T18:36:28.396Z,19.84
2017-12-17T18:38:57.092Z,19.81
2017-12-17T18:41:25.555Z,19.82
2017-12-17T18:43:53.822Z,19.86
2017-12-17T18:46:22.176Z,19.87
2017-12-17T18:48:50.468Z,19.88
2017-12-17T18:51:18.881Z,19.87
2017-12-17T18:53:47.159Z,19.91
2017-12-17T18:56:15.450Z,19.90
2017-12-17T18:58:44.512Z,19.96
2017-12-17T19:01:12.856Z,19.94
2017-12-17T19:03:41.149Z,19.94
2017-12-17T19:06:09.496Z,19.89
2017-12-17T19:08:37.800Z,19.96
2017-12-17T19:11:06.115Z,19.96
2017-12-17T19:13:35.006Z,19.98
2017-12-17T19:16:03.295Z,19.99
2017-12-17T19:18:31.611Z,19.97
2017-12-17T19:20:59.963Z,20.02
2017-12-17T19:23:28.391Z,19.97
2017-12-17T19:25:56.901Z,19.98
2017-12-17T19:28:25.198Z,20.00
2017-12-17T19:30:53.519Z,20.01
2017-12-17T19:33:21.825Z,19.99
2017-12-17T19:35:50.152Z,19.96
2017-12-17T19:38:18.463Z,20.03
2017-12-17T19:40:46.797Z,20.03
2017-12-17T19:43:15.209Z,20.06
2017-12-17T19:45:43.909Z,20.04
2017-12-17T19:48:13.230Z,20.07
2017-12-17T19:50:42.656Z,20.06
2017-12-17T19:53:11.533Z,20.06
2017-12-17T19:55:40.738Z,20.08
2017-12-17T19:58:10.934Z,20.07
2017-12-17T20:00:40.575Z,20.10
2017-12-17T20:03:12.047Z,20.19
2017-12-17T20:05:41.225Z,20.31
2017-12-17T20:08:09.843Z,20.39
2017-12-17T20:10:42.183Z,20.37
2017-12-17T20:13:11.138Z,20.35
2017-12-17T20:15:39.517Z,20.34
2017-12-17T20:18:07.914Z,20.32
2017-12-17T20:20:36.397Z,20.37
2017-12-17T20:23:04.682Z,20.37
2017-12-17T20:25:33.434Z,20.40
2017-12-17T20:28:01.721Z,20.50
2017-12-17T20:30:33.185Z,20.49
2017-12-17T20:33:02.836Z,20.49
2017-12-17T20:35:35.543Z,20.45
2017-12-17T20:38:09.893Z,20.46
2017-12-17T20:40:39.079Z,20.51
2017-12-17T20:43:09.227Z,20.60
2017-12-17T20:45:43.099Z,20.62
2017-12-17T20:48:13.108Z,20.66
2017-12-17T20:50:42.080Z,20.74
2017-12-17T20:53:11.691Z,20.84
2017-12-17T20:55:44.208Z,20.91
2017-12-17T20:58:13.891Z,21.05
2017-12-17T21:00:42.192Z,21.01
2017-12-17T21:03:10.710Z,20.93
2017-12-17T21:05:39.132Z,20.90
2017-12-17T21:08:08.519Z,20.86
2017-12-17T21:10:38.049Z,20.86
2017-12-17T21:13:07.284Z,20.89
2017-12-17T21:15:36.492Z,20.86
2017-12-17T21:18:05.113Z,20.80
2017-12-17T21:20:33.955Z,20.81
2017-12-17T21:23:05.383Z,20.83
2017-12-17T21:25:33.848Z,20.80
2017-12-17T21:28:04.179Z,20.77
2017-12-17T21:30:34.222Z,20.75
2017-12-17T21:33:04.453Z,20.69
2017-12-17T21:35:34.767Z,20.72
2017-12-17T21:38:03.316Z,20.71
2017-12-17T21:40:37.700Z,20.67
2017-12-17T21:43:06.862Z,20.64
2017-12-17T21:45:35.270Z,20.63
2017-12-17T21:48:03.595Z,20.59
2017-12-17T21:50:32.090Z,20.62
2017-12-17T21:53:01.347Z,20.58
2017-12-17T21:55:30.207Z,20.56
2017-12-17T21:57:59.475Z,20.55
2017-12-17T22:00:28.847Z,20.54
2017-12-17T22:02:57.426Z,20.56
2017-12-17T22:05:26.675Z,20.53
2017-12-17T22:07:55.417Z,20.53
2017-12-17T22:10:24.314Z,20.49
2017-12-17T22:12:53.126Z,20.49
2017-12-17T22:15:22.067Z,20.46
2017-12-17T22:17:51.351Z,20.43
2017-12-17T22:20:19.799Z,20.39
2017-12-17T22:22:48.219Z,20.39
2017-12-17T22:25:16.776Z,20.35
2017-12-17T22:27:45.235Z,20.36
2017-12-17T22:30:13.716Z,20.31
2017-12-17T22:32:42.082Z,20.27
2017-12-17T22:35:10.567Z,20.24
2017-12-17T22:37:38.968Z,20.22
2017-12-17T22:40:07.316Z,20.21
2017-12-17T22:42:35.591Z,20.16
2017-12-17T22:45:03.978Z,20.15
2017-12-17T22:47:33.522Z,20.13
2017-12-17T22:50:02.528Z,20.10
2017-12-17T22:52:31.036Z,20.11
2017-12-17T22:54:59.292Z,20.07
2017-12-17T22:57:27.603Z,20.05
2017-12-17T22:59:55.963Z,20.02
2017-12-17T23:02:24.478Z,19.99
2017-12-17T23:04:52.715Z,19.97
2017-12-17T23:07:21.028Z,19.93
2017-12-17T23:09:49.465Z,19.93
2017-12-17T23:12:17.762Z,19.87
2017-12-17T23:14:46.043Z,19.86
2017-12-17T23:17:14.344Z,19.84
2017-12-17T23:19:42.595Z,19.83
2017-12-17T23:22:10.904Z,19.80
2017-12-17T23:24:39.178Z,19.76
2017-12-17T23:27:07.504Z,19.74
2017-12-17T23:29:35.904Z,19.72
2017-12-17T23:32:04.195Z,19.71
2017-12-17T23:34:32.563Z,19.66
2017-12-17T23:37:00.886Z,19.66
2017-12-17T23:39:29.210Z,19.64
2017-12-17T23:41:57.511Z,19.62
2017-12-17T23:44:25.942Z,19.62
2017-12-17T23:46:54.279Z,19.58
2017-12-17T23:49:22.590Z,19.58
2017-12-17T23:51:51.027Z,19.57
2017-12-17T23:54:19.471Z,19.56
2017-12-17T23:56:47.779Z,19.53
2017-12-17T23:59:16.064Z,19.49
